createdAt,value
2022-11-15T00:00:57.600Z,95.10
2022-11-15T00:03:26.725Z,95.00
2022-11-15T00:05:53.694Z,95.10
2022-11-15T00:08:21.212Z,94.90
2022-11-15T00:11:01.922Z,95.00
2022-11-15T00:13:29.415Z,95.00
2022-11-15T00:16:00.480Z,95.20
2022-11-15T00:18:28.172Z,95.00
2022-11-15T00:20:54.923Z,95.90
2022-11-15T00:23:21.739Z,97.20
2022-11-15T00:25:48.522Z,97.90
2022-11-15T00:28:15.255Z,98.20
2022-11-15T00:30:41.992Z,99.00
2022-11-15T00:33:10.887Z,98.90
2022-11-15T00:35:37.666Z,98.70
2022-11-15T00:38:13.486Z,98.80
2022-11-15T00:40:40.239Z,98.70
2022-11-15T00:43:07.024Z,98.50
2022-11-15T00:45:33.808Z,98.40
2022-11-15T00:48:00.526Z,97.80
2022-11-15T00:50:27.263Z,97.80
2022-11-15T00:52:54.017Z,97.90
2022-11-15T00:55:21.000Z,98.20
2022-11-15T00:57:47.899Z,97.80
2022-11-15T01:00:15.118Z,97.70
2022-11-15T01:02:41.933Z,98.10
2022-11-15T01:05:09.555Z,98.10
2022-11-15T01:10:04.685Z,98.10
2022-11-15T01:12:31.785Z,98.20
2022-11-15T01:14:58.612Z,98.30
2022-11-15T01:17:25.470Z,98.30
2022-11-15T01:19:52.226Z,98.60
2022-11-15T01:24:46.209Z,98.20
2022-11-15T01:27:12.900Z,98.40
2022-11-15T01:29:39.647Z,98.50
2022-11-15T01:32:06.391Z,98.60
2022-11-15T01:34:33.208Z,98.80
2022-11-15T01:37:00.027Z,98.90
2022-11-15T01:39:27.614Z,98.70
2022-11-15T01:41:54.661Z,98.60
2022-11-15T01:44:48.627Z,98.90
2022-11-15T01:47:21.368Z,98.80
2022-11-15T01:50:01.939Z,99.10
2022-11-15T01:52:31.434Z,99.20
2022-11-15T01:55:15.936Z,99.30
2022-11-15T01:57:46.279Z,98.70
2022-11-15T02:00:13.879Z,98.80
2022-11-15T02:02:41.315Z,99.30
2022-11-15T02:05:08.522Z,99.10
2022-11-15T02:07:36.715Z,98.80
2022-11-15T02:10:12.193Z,98.90
2022-11-15T02:12:39.275Z,99.00
2022-11-15T02:15:07.910Z,99.00
2022-11-15T02:17:34.644Z,99.20
2022-11-15T02:20:20.244Z,99.30
2022-11-15T02:23:05.520Z,99.30
2022-11-15T02:26:02.581Z,99.40
2022-11-15T02:29:04.531Z,99.40
2022-11-15T02:31:49.312Z,99.20
2022-11-15T02:34:26.572Z,99.20
2022-11-15T02:37:02.155Z,99.30
2022-11-15T02:39:52.867Z,99.40
2022-11-15T02:42:43.771Z,99.50
2022-11-15T02:45:13.691Z,99.50
2022-11-15T02:47:46.674Z,99.80
2022-11-15T02:50:21.238Z,99.90
2022-11-15T02:52:50.287Z,99.90
2022-11-15T02:55:48.742Z,99.70
2022-11-15T02:58:24.250Z,99.90
2022-11-15T03:01:38.346Z,99.90
2022-11-15T03:04:34.256Z,99.90
2022-11-15T03:07:09.786Z,99.90
2022-11-15T03:10:05.863Z,99.90
2022-11-15T03:12:47.100Z,99.90
2022-11-15T03:15:36.741Z,99.90
2022-11-15T03:18:11.447Z,99.90
2022-11-15T03:20:38.377Z,99.90
2022-11-15T03:23:08.969Z,99.90
2022-11-15T03:25:41.397Z,99.90
2022-11-15T03:28:12.130Z,99.90
2022-11-15T03:30:40.876Z,99.90
2022-11-15T03:33:09.395Z,99.90
2022-11-15T03:35:41.636Z,99.90
2022-11-15T03:38:27.512Z,99.90
2022-11-15T03:41:02.160Z,99.90
2022-11-15T03:43:36.791Z,99.90
2022-11-15T03:46:20.304Z,99.90
2022-11-15T03:49:09.459Z,99.90
2022-11-15T03:51:36.634Z,99.90
2022-11-15T03:54:06.591Z,99.90
2022-11-15T03:56:34.464Z,99.90
2022-11-15T03:59:01.385Z,99.90
2022-11-15T04:01:28.162Z,99.90
2022-11-15T04:03:55.035Z,99.90
2022-11-15T04:06:21.905Z,99.90
2022-11-15T04:08:48.585Z,99.90
2022-11-15T04:11:15.350Z,99.90
2022-11-15T04:13:42.017Z,99.90
2022-11-15T04:16:08.751Z,99.90
2022-11-15T04:18:35.408Z,99.90
2022-11-15T04:21:20.782Z,99.90
2022-11-15T04:24:06.114Z,99.90
2022-11-15T04:26:33.433Z,99.90
2022-11-15T04:29:18.683Z,99.90
2022-11-15T04:31:45.381Z,99.90
2022-11-15T04:34:12.051Z,99.90
2022-11-15T04:36:57.595Z,99.90
2022-11-15T04:39:24.279Z,99.90
2022-11-15T04:41:51.015Z,99.90
2022-11-15T04:44:17.869Z,99.90
2022-11-15T04:46:44.627Z,99.90
2022-11-15T04:49:11.424Z,99.90
2022-11-15T04:51:38.369Z,99.90
2022-11-15T04:54:05.231Z,99.90
2022-11-15T04:56:31.966Z,99.90
2022-11-15T04:58:58.735Z,99.90
2022-11-15T05:01:25.503Z,99.90
2022-11-15T05:04:10.923Z,99.90
2022-11-15T05:06:37.673Z,99.90
2022-11-15T05:09:04.744Z,99.90
2022-11-15T05:11:31.878Z,99.90
2022-11-15T05:13:58.537Z,99.90
2022-11-15T05:16:25.275Z,99.90
2022-11-15T05:18:55.952Z,99.90
2022-11-15T05:21:22.695Z,99.90
2022-11-15T05:23:49.451Z,99.90
2022-11-15T05:26:18.445Z,99.90
2022-11-15T05:28:45.309Z,99.90
2022-11-15T05:31:15.011Z,99.90
2022-11-15T05:33:43.178Z,99.90
2022-11-15T05:36:28.439Z,99.90
2022-11-15T05:38:55.544Z,99.90
2022-11-15T05:41:46.702Z,99.90
2022-11-15T05:44:16.484Z,99.90
2022-11-15T05:46:43.843Z,99.90
2022-11-15T05:49:15.073Z,99.90
2022-11-15T05:51:45.608Z,99.90
2022-11-15T05:54:12.748Z,99.90
2022-11-15T05:56:39.990Z,99.90
2022-11-15T05:59:08.326Z,99.90
2022-11-15T06:01:35.149Z,99.90
2022-11-15T06:04:01.932Z,99.90
2022-11-15T06:06:29.837Z,99.90
2022-11-15T06:08:56.663Z,99.90
2022-11-15T06:11:23.469Z,99.90
2022-11-15T06:13:50.171Z,99.90
2022-11-15T06:16:16.898Z,99.90
2022-11-15T06:18:43.994Z,99.90
2022-11-15T06:21:10.648Z,99.90
2022-11-15T06:23:37.371Z,99.90
2022-11-15T06:26:04.516Z,99.90
2022-11-15T06:28:32.787Z,99.90
2022-11-15T06:31:07.408Z,99.90
2022-11-15T06:33:34.544Z,99.90
2022-11-15T06:36:06.729Z,99.90
2022-11-15T06:38:33.454Z,99.90
2022-11-15T06:41:09.653Z,99.90
2022-11-15T06:43:36.736Z,99.90
2022-11-15T06:46:05.658Z,99.90
2022-11-15T06:48:33.784Z,99.90
2022-11-15T06:51:02.382Z,99.90
2022-11-15T06:53:30.666Z,99.90
2022-11-15T06:56:05.586Z,99.90
2022-11-15T06:58:32.456Z,99.90
2022-11-15T07:01:04.635Z,99.90
2022-11-15T07:03:32.286Z,99.90
2022-11-15T07:06:04.235Z,99.90
2022-11-15T07:08:34.297Z,99.90
2022-11-15T07:11:06.723Z,99.90
2022-11-15T07:13:35.023Z,99.90
2022-11-15T07:16:06.349Z,99.90
2022-11-15T07:18:35.917Z,99.90
2022-11-15T07:21:07.650Z,99.90
2022-11-15T07:23:36.588Z,99.90
2022-11-15T07:26:03.541Z,99.90
2022-11-15T07:28:30.308Z,99.90
2022-11-15T07:30:57.308Z,99.90
2022-11-15T07:33:24.048Z,99.90
2022-11-15T07:35:50.806Z,99.90
2022-11-15T07:38:21.079Z,99.40
2022-11-15T07:40:48.490Z,98.90
2022-11-15T07:43:15.194Z,98.80
2022-11-15T07:45:46.310Z,98.70
2022-11-15T07:48:13.106Z,98.60
2022-11-15T07:50:43.635Z,98.60
2022-11-15T07:53:11.483Z,98.40
2022-11-15T07:55:40.970Z,98.40
2022-11-15T07:58:13.048Z,98.50
2022-11-15T08:00:39.833Z,98.30
2022-11-15T08:03:09.493Z,98.20
2022-11-15T08:05:37.069Z,98.10
2022-11-15T08:08:04.697Z,98.10
2022-11-15T08:10:34.239Z,98.30
2022-11-15T08:13:07.694Z,98.00
2022-11-15T08:15:35.546Z,97.80
2022-11-15T08:18:05.384Z,97.50
2022-11-15T08:20:33.170Z,97.40
2022-11-15T08:23:01.314Z,97.10
2022-11-15T08:25:29.763Z,96.80
2022-11-15T08:28:01.650Z,95.80
2022-11-15T08:30:29.179Z,96.10
2022-11-15T08:32:58.479Z,96.00
2022-11-15T08:35:29.018Z,95.10
2022-11-15T08:37:56.410Z,93.80
2022-11-15T08:40:23.809Z,93.60
2022-11-15T08:42:50.516Z,93.70
2022-11-15T08:45:17.382Z,94.50
2022-11-15T08:47:44.123Z,94.40
2022-11-15T08:50:11.098Z,94.30
2022-11-15T08:52:37.775Z,94.10
2022-11-15T08:55:04.849Z,93.70
2022-11-15T08:57:31.731Z,94.20
2022-11-15T08:59:58.778Z,93.50
2022-11-15T09:02:25.634Z,92.60
2022-11-15T09:04:52.343Z,93.10
2022-11-15T09:07:19.336Z,92.90
2022-11-15T09:09:46.105Z,91.50
2022-11-15T09:12:12.784Z,92.60
2022-11-15T09:17:09.782Z,93.20
2022-11-15T09:19:37.800Z,93.20
2022-11-15T09:22:07.893Z,91.80
2022-11-15T09:24:35.243Z,88.80
2022-11-15T09:27:02.012Z,88.50
2022-11-15T09:29:28.789Z,85.50
2022-11-15T09:31:55.721Z,85.00
2022-11-15T09:34:22.427Z,83.00
2022-11-15T09:36:49.102Z,83.00
2022-11-15T09:39:15.952Z,83.60
2022-11-15T09:42:13.206Z,81.50
2022-11-15T09:45:29.815Z,81.70
2022-11-15T09:48:11.255Z,81.80
2022-11-15T09:50:51.194Z,80.30
2022-11-15T09:56:28.588Z,77.90
2022-11-15T09:59:16.511Z,79.90
2022-11-15T10:02:08.908Z,80.80
2022-11-15T10:04:38.016Z,81.10
2022-11-15T10:07:17.201Z,81.10
2022-11-15T10:09:58.107Z,81.40
2022-11-15T10:12:26.630Z,80.90
2022-11-15T10:15:02.170Z,79.90
2022-11-15T10:17:41.857Z,79.30
2022-11-15T10:20:08.632Z,77.60
2022-11-15T10:22:45.295Z,77.50
2022-11-15T10:25:26.763Z,77.20
2022-11-15T10:28:18.920Z,76.50
2022-11-15T10:30:48.809Z,76.80
2022-11-15T10:33:27.130Z,76.30
2022-11-15T10:36:12.593Z,74.40
2022-11-15T10:38:51.528Z,75.10
2022-11-15T10:41:20.975Z,75.30
2022-11-15T10:44:09.593Z,74.50
2022-11-15T10:46:47.528Z,75.80
2022-11-15T10:49:17.904Z,75.80
2022-11-15T10:52:20.244Z,74.60
2022-11-15T10:54:54.925Z,74.70
2022-11-15T10:57:26.739Z,76.60
2022-11-15T10:59:57.486Z,76.30
2022-11-15T11:02:31.942Z,73.90
2022-11-15T11:04:59.464Z,73.50
2022-11-15T11:07:34.733Z,73.30
2022-11-15T11:10:49.245Z,71.70
2022-11-15T11:13:24.002Z,70.10
2022-11-15T11:16:15.867Z,68.40
2022-11-15T11:18:57.543Z,69.00
2022-11-15T11:21:54.957Z,68.00
2022-11-15T11:24:57.022Z,67.70
2022-11-15T11:27:48.599Z,70.20
2022-11-15T11:30:18.465Z,70.20
2022-11-15T11:32:45.155Z,70.50
2022-11-15T11:35:30.092Z,70.20
2022-11-15T11:38:16.484Z,70.90
2022-11-15T11:41:08.068Z,70.50
2022-11-15T11:43:46.937Z,70.10
2022-11-15T11:46:28.801Z,70.40
2022-11-15T11:49:05.417Z,72.80
2022-11-15T11:51:43.129Z,73.60
2022-11-15T11:54:41.040Z,71.50
2022-11-15T11:57:26.748Z,71.80
2022-11-15T12:00:03.682Z,72.90
2022-11-15T12:02:32.863Z,71.10
2022-11-15T12:05:33.463Z,70.90
2022-11-15T12:08:12.180Z,76.20
2022-11-15T12:10:40.208Z,73.00
2022-11-15T12:13:22.173Z,72.30
2022-11-15T12:16:10.484Z,74.60
2022-11-15T12:18:38.548Z,74.80
2022-11-15T12:21:17.666Z,74.80
2022-11-15T12:23:51.666Z,76.20
2022-11-15T12:26:22.698Z,76.00
2022-11-15T12:29:07.589Z,76.50
2022-11-15T12:31:44.737Z,76.40
2022-11-15T12:34:37.379Z,76.40
2022-11-15T12:37:35.937Z,76.40
2022-11-15T12:40:24.131Z,75.40
2022-11-15T12:43:04.820Z,74.90
2022-11-15T12:45:39.710Z,74.20
2022-11-15T12:48:18.603Z,76.80
2022-11-15T12:50:56.059Z,77.60
2022-11-15T12:53:25.759Z,78.50
2022-11-15T12:56:04.280Z,78.50
2022-11-15T12:58:49.483Z,78.60
2022-11-15T13:01:31.684Z,78.50
2022-11-15T13:04:19.436Z,78.50
2022-11-15T13:06:56.920Z,78.50
2022-11-15T13:09:53.412Z,79.10
2022-11-15T13:12:23.076Z,79.50
2022-11-15T13:15:02.505Z,79.60
2022-11-15T13:17:29.236Z,80.70
2022-11-15T13:20:07.879Z,80.60
2022-11-15T13:23:03.071Z,80.30
2022-11-15T13:25:32.689Z,80.70
2022-11-15T13:28:03.599Z,80.80
2022-11-15T13:30:33.539Z,81.30
2022-11-15T13:33:09.540Z,84.10
2022-11-15T13:35:41.027Z,84.70
2022-11-15T13:38:18.142Z,84.70
2022-11-15T13:40:44.917Z,85.60
2022-11-15T13:43:28.562Z,85.00
2022-11-15T13:46:13.769Z,84.90
2022-11-15T13:48:42.009Z,85.30
2022-11-15T13:51:45.215Z,86.10
2022-11-15T13:54:45.123Z,86.60
2022-11-15T13:57:20.064Z,86.50
2022-11-15T13:59:55.132Z,86.40
2022-11-15T14:02:34.377Z,86.20
2022-11-15T14:05:13.853Z,86.80
2022-11-15T14:07:44.427Z,86.50
2022-11-15T14:10:30.982Z,86.20
2022-11-15T14:12:58.714Z,86.30
2022-11-15T14:15:35.017Z,86.60
2022-11-15T14:18:02.733Z,87.00
2022-11-15T14:20:35.434Z,86.50
2022-11-15T14:23:05.323Z,86.80
2022-11-15T14:25:36.431Z,86.60
2022-11-15T14:28:23.139Z,86.60
2022-11-15T14:30:52.617Z,86.70
2022-11-15T14:33:29.475Z,87.80
2022-11-15T14:35:58.294Z,88.20
2022-11-15T14:38:28.123Z,88.80
2022-11-15T14:40:56.716Z,88.70
2022-11-15T14:43:23.842Z,88.20
2022-11-15T14:45:50.579Z,87.70
2022-11-15T14:48:17.258Z,87.70
2022-11-15T14:50:44.950Z,88.10
2022-11-15T14:53:14.492Z,87.80
2022-11-15T14:55:41.178Z,88.30
2022-11-15T14:58:11.368Z,88.30
2022-11-15T15:00:40.491Z,87.00
2022-11-15T15:03:07.952Z,87.00
2022-11-15T15:05:35.771Z,86.80
2022-11-15T15:08:03.072Z,87.20
2022-11-15T15:10:42.003Z,87.30
2022-11-15T15:13:23.605Z,87.30
2022-11-15T15:15:51.895Z,87.40
2022-11-15T15:18:18.957Z,87.60
2022-11-15T15:20:55.286Z,87.50
2022-11-15T15:23:22.160Z,87.70
2022-11-15T15:25:50.146Z,87.80
2022-11-15T15:28:17.393Z,87.10
2022-11-15T15:30:44.598Z,87.20
2022-11-15T15:33:11.406Z,87.10
2022-11-15T15:35:38.139Z,87.10
2022-11-15T15:38:05.403Z,87.20
2022-11-15T15:40:33.675Z,87.00
2022-11-15T15:43:00.844Z,87.20
2022-11-15T15:45:28.617Z,87.00
2022-11-15T15:47:56.008Z,87.20
2022-11-15T15:50:23.096Z,87.30
2022-11-15T15:52:51.133Z,87.30
2022-11-15T15:55:17.979Z,87.40
2022-11-15T15:57:44.796Z,87.30
2022-11-15T16:00:12.218Z,87.00
2022-11-15T16:02:40.791Z,87.40
2022-11-15T16:05:09.077Z,87.30
2022-11-15T16:07:36.257Z,87.40
2022-11-15T16:10:25.837Z,87.80
2022-11-15T16:12:53.885Z,88.00
2022-11-15T16:15:22.027Z,88.20
2022-11-15T16:17:52.468Z,88.30
2022-11-15T16:20:30.319Z,88.30
2022-11-15T16:22:57.601Z,87.50
2022-11-15T16:25:24.567Z,87.80
2022-11-15T16:27:51.312Z,87.70
2022-11-15T16:30:22.295Z,88.40
2022-11-15T16:32:49.146Z,88.20
2022-11-15T16:35:17.345Z,88.60
2022-11-15T16:37:46.561Z,88.80
2022-11-15T16:40:42.505Z,89.10
2022-11-15T16:43:09.265Z,89.50
2022-11-15T16:45:36.078Z,89.90
2022-11-15T16:48:03.190Z,90.30
2022-11-15T16:50:35.075Z,90.40
2022-11-15T16:53:02.089Z,90.80
2022-11-15T16:55:30.407Z,91.60
2022-11-15T16:58:01.884Z,91.90
2022-11-15T17:00:29.041Z,92.00
2022-11-15T17:02:56.237Z,92.00
2022-11-15T17:05:24.285Z,92.10
2022-11-15T17:07:54.755Z,92.00
2022-11-15T17:10:23.161Z,92.50
2022-11-15T17:12:51.023Z,92.50
2022-11-15T17:15:18.690Z,92.50
2022-11-15T17:17:50.783Z,93.00
2022-11-15T17:20:18.918Z,92.90
2022-11-15T17:22:47.270Z,92.80
2022-11-15T17:25:14.591Z,92.80
2022-11-15T17:27:41.748Z,92.90
2022-11-15T17:30:10.438Z,92.90
2022-11-15T17:32:37.570Z,92.70
2022-11-15T17:35:11.955Z,92.50
2022-11-15T17:37:40.526Z,92.50
2022-11-15T17:40:07.932Z,92.80
2022-11-15T17:42:34.660Z,92.80
2022-11-15T17:45:06.547Z,92.70
2022-11-15T17:47:36.572Z,92.80
2022-11-15T17:50:03.560Z,93.00
2022-11-15T17:52:30.309Z,92.70
2022-11-15T17:54:57.086Z,93.00
2022-11-15T17:57:24.170Z,93.20
2022-11-15T17:59:50.941Z,92.80
2022-11-15T18:02:17.720Z,93.00
2022-11-15T18:04:44.434Z,93.10
2022-11-15T18:12:10.493Z,94.00
2022-11-15T18:14:37.390Z,94.00
2022-11-15T18:19:31.311Z,93.90
2022-11-15T18:21:58.934Z,94.10
2022-11-15T18:24:34.684Z,94.30
2022-11-15T18:27:03.722Z,94.40
2022-11-15T18:29:30.789Z,94.50
2022-11-15T18:31:58.752Z,94.70
2022-11-15T18:34:31.802Z,94.70
2022-11-15T18:36:59.167Z,94.90
2022-11-15T18:39:25.881Z,95.10
2022-11-15T18:41:52.747Z,95.40
2022-11-15T18:44:19.754Z,95.50
2022-11-15T18:46:46.662Z,95.60
2022-11-15T18:49:16.445Z,95.40
2022-11-15T18:51:44.023Z,95.70
2022-11-15T18:54:12.866Z,95.60
2022-11-15T18:56:40.227Z,95.50
2022-11-15T18:59:08.366Z,95.70
2022-11-15T19:01:40.888Z,95.90
2022-11-15T19:04:17.594Z,95.70
2022-11-15T19:06:48.787Z,95.60
2022-11-15T19:09:17.531Z,95.70
2022-11-15T19:11:45.880Z,96.20
2022-11-15T19:14:15.211Z,95.60
2022-11-15T19:16:52.126Z,95.40
2022-11-15T19:19:21.514Z,95.50
2022-11-15T19:21:48.532Z,95.60
2022-11-15T19:24:15.535Z,95.60
2022-11-15T19:26:42.947Z,96.00
2022-11-15T19:29:10.429Z,96.00
2022-11-15T19:31:37.750Z,95.70
2022-11-15T19:34:05.934Z,95.70
2022-11-15T19:36:38.081Z,96.00
2022-11-15T19:39:09.638Z,95.80
2022-11-15T19:41:38.689Z,96.30
2022-11-15T19:44:06.931Z,96.30
2022-11-15T19:46:34.233Z,95.70
2022-11-15T19:49:01.449Z,95.90
2022-11-15T19:51:30.825Z,95.80
2022-11-15T19:54:01.434Z,95.40
2022-11-15T19:58:56.351Z,95.20
2022-11-15T20:01:29.207Z,95.10
2022-11-15T20:03:58.798Z,95.10
2022-11-15T20:06:33.993Z,95.00
2022-11-15T20:09:01.007Z,94.90
2022-11-15T20:11:27.892Z,94.90
2022-11-15T20:13:59.363Z,95.00
2022-11-15T20:16:26.543Z,95.00
2022-11-15T20:18:53.406Z,95.10
2022-11-15T20:21:20.706Z,94.80
2022-11-15T20:23:47.958Z,94.70
2022-11-15T20:26:15.879Z,94.80
2022-11-15T20:28:44.688Z,94.90
2022-11-15T20:31:12.926Z,94.50
2022-11-15T20:33:39.923Z,94.70
2022-11-15T20:36:15.427Z,94.90
2022-11-15T20:38:42.548Z,94.80
2022-11-15T20:41:11.019Z,94.80
2022-11-15T20:43:37.915Z,94.70
2022-11-15T20:46:04.774Z,94.40
2022-11-15T20:48:32.017Z,94.30
2022-11-15T20:51:10.999Z,94.30
2022-11-15T20:53:37.734Z,93.80
2022-11-15T20:56:07.855Z,93.70
2022-11-15T20:58:36.596Z,93.40
2022-11-15T21:01:05.122Z,93.40
2022-11-15T21:03:32.560Z,93.40
2022-11-15T21:05:59.411Z,93.30
2022-11-15T21:11:12.764Z,93.40
2022-11-15T21:13:40.018Z,93.20
2022-11-15T21:16:07.324Z,92.90
2022-11-15T21:18:34.373Z,92.80
2022-11-15T21:21:05.489Z,92.80
2022-11-15T21:23:32.258Z,92.70
2022-11-15T21:25:59.180Z,92.50
2022-11-15T21:28:25.967Z,92.50
2022-11-15T21:30:57.484Z,92.50
2022-11-15T21:33:27.351Z,92.20
2022-11-15T21:35:55.702Z,92.50
2022-11-15T21:38:24.000Z,92.20
2022-11-15T21:40:52.051Z,92.30
2022-11-15T21:43:19.358Z,92.40
2022-11-15T21:45:57.161Z,92.40
2022-11-15T21:48:23.884Z,92.30
2022-11-15T21:50:58.154Z,92.80
2022-11-15T21:53:25.576Z,92.80
2022-11-15T21:55:52.773Z,92.30
2022-11-15T21:58:21.105Z,92.20
2022-11-15T22:01:07.032Z,92.30
2022-11-15T22:03:34.014Z,92.30
2022-11-15T22:06:00.948Z,92.20
2022-11-15T22:08:28.037Z,92.10
2022-11-15T22:10:56.748Z,92.10
2022-11-15T22:13:25.003Z,91.80
2022-11-15T22:15:53.943Z,91.90
2022-11-15T22:18:26.258Z,91.80
2022-11-15T22:21:09.104Z,91.70
2022-11-15T22:23:36.306Z,91.40
2022-11-15T22:26:03.937Z,91.80
2022-11-15T22:28:31.315Z,91.60
2022-11-15T22:30:58.469Z,91.20
2022-11-15T22:33:27.725Z,91.10
2022-11-15T22:35:55.174Z,91.10
2022-11-15T22:38:22.518Z,91.30
2022-11-15T22:40:49.481Z,91.30
2022-11-15T22:43:18.407Z,91.10
2022-11-15T22:46:04.495Z,90.70
2022-11-15T22:48:36.866Z,90.80
2022-11-15T22:51:04.899Z,90.60
2022-11-15T22:53:31.868Z,90.80
2022-11-15T22:56:00.682Z,90.90
2022-11-15T22:58:29.458Z,90.60
2022-11-15T23:00:58.189Z,90.30
2022-11-15T23:03:26.579Z,90.00
2022-11-15T23:05:53.673Z,90.20
2022-11-15T23:08:23.229Z,90.10
2022-11-15T23:11:08.987Z,89.90
2022-11-15T23:13:35.985Z,89.90
2022-11-15T23:16:34.533Z,89.90
2022-11-15T23:19:07.405Z,89.70
2022-11-15T23:21:58.158Z,89.50
2022-11-15T23:24:25.578Z,89.80
2022-11-15T23:26:55.846Z,89.60
2022-11-15T23:29:25.040Z,89.80
2022-11-15T23:32:11.707Z,90.00
2022-11-15T23:34:43.910Z,89.90
2022-11-15T23:37:14.135Z,89.90
2022-11-15T23:39:40.929Z,89.90
2022-11-15T23:42:09.392Z,90.20
2022-11-15T23:44:36.827Z,89.80
2022-11-15T23:47:03.859Z,89.80
2022-11-15T23:49:30.607Z,89.80
2022-11-15T23:51:57.378Z,89.90
2022-11-15T23:54:24.118Z,89.90
2022-11-15T23:56:50.827Z,89.90
2022-11-15T23:59:17.682Z,90.30
